createdAt,value
2023-03-24T00:00:28.283Z,99388.69
2023-03-24T00:03:02.443Z,99338.63
2023-03-24T00:05:34.164Z,99406.03
2023-03-24T00:08:05.516Z,99397.19
2023-03-24T00:10:37.044Z,99386.09
2023-03-24T00:13:08.380Z,99345.78
2023-03-24T00:15:39.792Z,99325.59
2023-03-24T00:18:11.180Z,99391.34
2023-03-24T00:20:46.003Z,99350.53
2023-03-24T00:23:17.573Z,99320.50
2023-03-24T00:26:03.373Z,99301.91
2023-03-24T00:28:36.926Z,99362.50
2023-03-24T00:31:08.903Z,99288.34
2023-03-24T00:33:42.120Z,99347.03
2023-03-24T00:36:13.834Z,99344.44
2023-03-24T00:38:48.367Z,99342.56
2023-03-24T00:41:20.348Z,99361.72
2023-03-24T00:43:55.312Z,99256.03
2023-03-24T00:46:30.103Z,99333.81
2023-03-24T00:49:07.555Z,99262.06
2023-03-24T00:51:41.191Z,99266.94
2023-03-24T00:54:13.932Z,99254.16
2023-03-24T00:56:49.536Z,99241.28
2023-03-24T00:59:21.355Z,99274.91
2023-03-24T01:01:52.776Z,99307.66
2023-03-24T01:04:26.461Z,99246.88
2023-03-24T01:06:58.369Z,99247.94
2023-03-24T01:09:29.727Z,99280.63
2023-03-24T01:12:01.124Z,99223.75
2023-03-24T01:14:32.973Z,99215.28
2023-03-24T01:17:06.329Z,99225.13
2023-03-24T01:19:37.689Z,99274.47
2023-03-24T01:22:09.066Z,99271.75
2023-03-24T01:24:40.543Z,99248.13
2023-03-24T01:27:11.937Z,99262.00
2023-03-24T01:29:43.373Z,99242.81
2023-03-24T01:32:14.980Z,99240.28
2023-03-24T01:34:46.735Z,99190.44
2023-03-24T01:37:18.084Z,99227.22
2023-03-24T01:39:51.006Z,99213.34
2023-03-24T01:42:24.841Z,99183.75
2023-03-24T01:45:01.523Z,99198.28
2023-03-24T01:47:34.107Z,99220.91
2023-03-24T01:50:06.833Z,99193.03
2023-03-24T01:52:38.222Z,99179.72
2023-03-24T01:55:18.410Z,99115.94
2023-03-24T01:57:53.676Z,99186.88
2023-03-24T02:00:25.434Z,99185.22
2023-03-24T02:03:06.946Z,99162.28
2023-03-24T02:17:54.887Z,99134.44
2023-03-24T02:21:06.051Z,99156.84
2023-03-24T02:23:40.536Z,99131.31
2023-03-24T02:26:42.673Z,99139.13
2023-03-24T02:29:51.482Z,99130.31
2023-03-24T02:32:45.668Z,99124.28
2023-03-24T02:35:44.660Z,99125.00
2023-03-24T02:38:42.409Z,99120.50
2023-03-24T02:41:38.712Z,99099.41
2023-03-24T02:44:35.473Z,99106.25
2023-03-24T02:47:20.469Z,99107.09
2023-03-24T02:50:25.000Z,99072.38
2023-03-24T02:53:05.626Z,99085.28
2023-03-24T02:55:51.528Z,99075.53
2023-03-24T02:58:49.575Z,99074.63
2023-03-24T03:01:32.418Z,99018.31
2023-03-24T03:04:12.895Z,99069.84
2023-03-24T03:06:54.602Z,99049.03
2023-03-24T03:09:28.682Z,99040.06
2023-03-24T03:12:01.136Z,99026.75
2023-03-24T03:14:41.618Z,99030.19
2023-03-24T03:17:22.999Z,99025.75
2023-03-24T03:19:58.131Z,99015.19
2023-03-24T03:22:38.704Z,98959.38
2023-03-24T03:25:13.290Z,99010.03
2023-03-24T03:27:46.811Z,98989.22
2023-03-24T03:30:28.183Z,98925.09
2023-03-24T03:33:10.347Z,98952.41
2023-03-24T03:36:22.094Z,98995.94
2023-03-24T03:39:10.521Z,99002.97
2023-03-24T03:41:42.656Z,98906.16
2023-03-24T03:44:13.987Z,98937.19
2023-03-24T03:46:45.578Z,98983.31
2023-03-24T03:49:16.981Z,98973.06
2023-03-24T03:51:50.580Z,98957.16
2023-03-24T03:54:24.466Z,98971.06
2023-03-24T03:56:56.924Z,98933.63
2023-03-24T03:59:36.587Z,98947.19
2023-03-24T04:02:34.716Z,98958.72
2023-03-24T04:05:19.336Z,98949.97
2023-03-24T04:08:06.149Z,98947.97
2023-03-24T04:11:14.218Z,98954.00
2023-03-24T04:13:58.046Z,98965.75
2023-03-24T04:16:32.283Z,98951.97
2023-03-24T04:19:10.165Z,98940.66
2023-03-24T04:21:53.868Z,98893.69
2023-03-24T04:24:40.238Z,98933.03
2023-03-24T04:27:27.149Z,98902.72
2023-03-24T04:30:23.497Z,98941.03
2023-03-24T04:33:05.430Z,98927.34
2023-03-24T04:35:49.215Z,98858.03
2023-03-24T04:38:28.356Z,98874.28
2023-03-24T04:41:01.522Z,98845.69
2023-03-24T04:43:36.437Z,98910.19
2023-03-24T04:46:09.464Z,98862.25
2023-03-24T04:48:41.344Z,98913.94
2023-03-24T04:51:13.295Z,98912.47
2023-03-24T04:53:45.975Z,98921.22
2023-03-24T04:56:53.794Z,98908.72
2023-03-24T04:59:25.896Z,98895.91
2023-03-24T05:01:57.266Z,98870.09
2023-03-24T05:04:29.926Z,98893.31
2023-03-24T05:07:01.692Z,98879.50
2023-03-24T05:09:33.078Z,98887.63
2023-03-24T05:12:04.522Z,98894.97
2023-03-24T05:14:36.301Z,98892.94
2023-03-24T05:17:07.700Z,98873.72
2023-03-24T05:19:39.448Z,98830.22
2023-03-24T05:22:11.705Z,98890.91
2023-03-24T05:24:45.926Z,98807.09
2023-03-24T05:27:17.903Z,98868.72
2023-03-24T05:29:51.067Z,98892.16
2023-03-24T05:32:22.706Z,98861.84
2023-03-24T05:34:55.663Z,98808.25
2023-03-24T05:37:27.576Z,98869.03
2023-03-24T05:39:59.048Z,98867.06
2023-03-24T05:42:30.614Z,98873.25
2023-03-24T05:45:02.496Z,98838.41
2023-03-24T05:47:34.033Z,98864.25
2023-03-24T05:50:06.441Z,98855.44
2023-03-24T05:52:38.117Z,98871.81
2023-03-24T05:55:11.154Z,98867.44
2023-03-24T05:57:43.642Z,98867.28
2023-03-24T06:00:17.528Z,98855.19
2023-03-24T06:02:49.592Z,98779.22
2023-03-24T06:05:21.250Z,98796.84
2023-03-24T06:07:58.607Z,98783.13
2023-03-24T06:10:30.332Z,98836.50
2023-03-24T06:13:02.028Z,98809.72
2023-03-24T06:15:33.662Z,98850.09
2023-03-24T06:18:05.440Z,98856.22
2023-03-24T06:20:37.454Z,98855.41
2023-03-24T06:23:08.949Z,98795.03
2023-03-24T06:25:44.419Z,98875.06
2023-03-24T06:28:18.221Z,98867.06
2023-03-24T06:30:49.797Z,98883.63
2023-03-24T06:33:22.226Z,98878.66
2023-03-24T06:35:56.694Z,98876.75
2023-03-24T06:38:28.252Z,98888.09
2023-03-24T06:41:01.266Z,98816.97
2023-03-24T06:43:33.036Z,98894.66
2023-03-24T06:46:04.678Z,98902.78
2023-03-24T06:48:36.783Z,98890.88
2023-03-24T06:51:08.439Z,98890.03
2023-03-24T06:53:41.425Z,98866.50
2023-03-24T06:56:18.176Z,98879.94
2023-03-24T06:58:49.739Z,98827.91
2023-03-24T07:01:21.463Z,98895.72
2023-03-24T07:03:53.287Z,98902.06
2023-03-24T07:06:24.781Z,98899.34
2023-03-24T07:08:57.661Z,98956.31
2023-03-24T07:11:29.365Z,98876.53
2023-03-24T07:14:01.028Z,98969.53
2023-03-24T07:16:32.855Z,98979.09
2023-03-24T07:19:04.507Z,98905.94
2023-03-24T07:21:36.327Z,98987.91
2023-03-24T07:24:08.938Z,98985.75
2023-03-24T07:26:40.600Z,98988.78
2023-03-24T07:29:12.040Z,98995.13
2023-03-24T07:31:45.034Z,98979.31
2023-03-24T07:34:16.641Z,99008.03
2023-03-24T07:36:48.464Z,99003.47
2023-03-24T07:39:21.151Z,99012.88
2023-03-24T07:41:52.956Z,99026.34
2023-03-24T07:44:25.954Z,99042.91
2023-03-24T07:46:57.417Z,99025.00
2023-03-24T07:49:28.859Z,99032.06
2023-03-24T07:52:02.091Z,99055.03
2023-03-24T07:54:34.522Z,99016.31
2023-03-24T07:57:09.753Z,99066.94
2023-03-24T07:59:42.856Z,99085.97
2023-03-24T08:02:18.002Z,99000.38
2023-03-24T08:04:53.735Z,99096.63
2023-03-24T08:07:25.470Z,99077.00
2023-03-24T08:09:56.957Z,99029.63
2023-03-24T08:12:28.434Z,99083.22
2023-03-24T08:15:00.162Z,99097.94
2023-03-24T08:17:33.683Z,99102.25
2023-03-24T08:20:12.085Z,99056.81
2023-03-24T08:22:49.983Z,99091.69
2023-03-24T08:25:24.856Z,99105.22
2023-03-24T08:27:56.491Z,99137.47
2023-03-24T08:30:28.358Z,99104.28
2023-03-24T08:33:02.433Z,99144.44
2023-03-24T08:35:38.959Z,99138.00
2023-03-24T08:38:12.020Z,99149.34
2023-03-24T08:40:43.582Z,99159.59
2023-03-24T08:43:16.164Z,99126.72
2023-03-24T08:45:48.230Z,99134.41
2023-03-24T08:48:20.323Z,99150.19
2023-03-24T08:50:52.609Z,99162.19
2023-03-24T08:53:25.433Z,99127.19
2023-03-24T08:55:57.908Z,99155.03
2023-03-24T08:58:29.535Z,99157.53
2023-03-24T09:01:02.525Z,99099.81
2023-03-24T09:03:34.123Z,99105.16
2023-03-24T09:06:06.239Z,99186.19
2023-03-24T09:08:38.349Z,99181.19
2023-03-24T09:11:16.973Z,99142.28
2023-03-24T09:13:49.304Z,99140.41
2023-03-24T09:18:54.718Z,99181.88
2023-03-24T09:21:26.496Z,99189.44
2023-03-24T09:23:57.866Z,99205.09
2023-03-24T09:26:30.253Z,99204.16
2023-03-24T09:29:02.093Z,99207.69
2023-03-24T09:31:34.241Z,99204.41
2023-03-24T09:34:05.774Z,99209.94
2023-03-24T09:36:37.413Z,99202.28
2023-03-24T09:39:08.928Z,99205.41
2023-03-24T09:41:41.456Z,99217.94
2023-03-24T09:44:43.416Z,99215.84
2023-03-24T09:47:29.788Z,99232.94
2023-03-24T09:50:06.674Z,99172.69
2023-03-24T09:52:42.910Z,99226.66
2023-03-24T09:55:23.846Z,99199.63
2023-03-24T09:58:03.326Z,99246.31
2023-03-24T10:00:36.343Z,99238.44
2023-03-24T10:03:22.787Z,99259.13
2023-03-24T10:06:01.941Z,99183.59
2023-03-24T10:08:40.988Z,99200.97
2023-03-24T10:11:26.489Z,99255.22
2023-03-24T10:14:22.247Z,99251.53
2023-03-24T10:17:00.539Z,99217.19
2023-03-24T10:19:39.167Z,99164.13
2023-03-24T10:22:25.995Z,99243.72
2023-03-24T10:25:06.536Z,99238.59
2023-03-24T10:27:51.365Z,99236.63
2023-03-24T10:30:28.053Z,99233.47
2023-03-24T10:32:59.528Z,99209.34
2023-03-24T10:35:39.202Z,99201.63
2023-03-24T10:38:20.245Z,99219.00
2023-03-24T10:40:52.918Z,99237.72
2023-03-24T10:43:26.374Z,99200.44
2023-03-24T10:45:59.854Z,99182.25
2023-03-24T10:48:42.491Z,99242.88
2023-03-24T10:51:20.030Z,99221.41
2023-03-24T10:53:52.146Z,99250.47
2023-03-24T10:56:46.149Z,99260.09
2023-03-24T10:59:32.227Z,99264.47
2023-03-24T11:02:10.040Z,99270.78
2023-03-24T11:04:45.264Z,99266.47
2023-03-24T11:07:20.844Z,99273.84
2023-03-24T11:10:01.788Z,99232.69
2023-03-24T11:12:36.681Z,99219.00
2023-03-24T11:15:24.521Z,99297.53
2023-03-24T11:18:11.138Z,99313.41
2023-03-24T11:21:04.308Z,99323.22
2023-03-24T11:23:42.711Z,99254.84
2023-03-24T11:26:23.930Z,99316.38
2023-03-24T11:29:02.645Z,99279.91
2023-03-24T11:31:39.125Z,99260.22
2023-03-24T11:34:25.575Z,99236.09
2023-03-24T11:37:01.728Z,99307.09
2023-03-24T11:39:36.939Z,99309.75
2023-03-24T11:42:11.127Z,99323.00
2023-03-24T11:44:49.145Z,99319.00
2023-03-24T11:47:29.411Z,99317.25
2023-03-24T11:50:19.621Z,99312.53
2023-03-24T11:53:06.121Z,99258.56
2023-03-24T11:55:43.568Z,99330.88
2023-03-24T11:58:36.977Z,99331.59
2023-03-24T12:01:20.535Z,99328.94
2023-03-24T12:04:15.355Z,99327.13
2023-03-24T12:07:17.612Z,99311.81
2023-03-24T12:10:05.376Z,99317.78
2023-03-24T12:13:00.110Z,99326.00
2023-03-24T12:15:53.541Z,99296.22
2023-03-24T12:19:02.786Z,99316.28
2023-03-24T12:22:04.403Z,99290.28
2023-03-24T12:25:04.684Z,99316.84
2023-03-24T12:27:48.973Z,99302.41
2023-03-24T12:30:30.841Z,99281.81
2023-03-24T12:33:39.802Z,99327.81
2023-03-24T12:36:19.321Z,99258.72
2023-03-24T12:39:01.985Z,99258.91
2023-03-24T12:42:01.288Z,99327.94
2023-03-24T12:44:41.439Z,99325.91
2023-03-24T12:47:54.976Z,99323.13
2023-03-24T12:50:35.227Z,99330.34
2023-03-24T12:53:16.220Z,99323.63
2023-03-24T12:56:15.762Z,99324.53
2023-03-24T12:58:54.714Z,99232.53
2023-03-24T13:01:44.200Z,99324.16
2023-03-24T13:04:30.961Z,99245.09
2023-03-24T13:07:06.927Z,99332.69
2023-03-24T13:10:06.918Z,99310.63
2023-03-24T13:12:53.220Z,99241.34
2023-03-24T13:15:34.940Z,99301.75
2023-03-24T13:18:09.438Z,99326.97
2023-03-24T13:20:46.122Z,99315.88
2023-03-24T13:23:39.415Z,99280.56
2023-03-24T13:26:17.540Z,99302.25
2023-03-24T13:28:51.780Z,99314.13
2023-03-24T13:31:25.813Z,99296.69
2023-03-24T13:33:59.665Z,99299.34
2023-03-24T13:36:41.127Z,99243.22
2023-03-24T13:39:16.900Z,99297.09
2023-03-24T13:41:53.825Z,99296.38
2023-03-24T13:44:38.441Z,99267.69
2023-03-24T13:47:14.598Z,99312.16
2023-03-24T13:50:04.618Z,99291.03
2023-03-24T13:52:44.998Z,99288.41
2023-03-24T13:55:26.800Z,99299.34
2023-03-24T13:58:04.046Z,99296.03
2023-03-24T14:01:07.374Z,99299.03
2023-03-24T14:03:41.661Z,99228.69
2023-03-24T14:06:46.502Z,99311.69
2023-03-24T14:09:30.793Z,99266.97
2023-03-24T14:12:02.062Z,99325.63
2023-03-24T14:15:16.798Z,99312.03
2023-03-24T14:17:53.797Z,99246.59
2023-03-24T14:20:33.880Z,99237.41
2023-03-24T14:23:05.519Z,99304.16
2023-03-24T14:25:37.169Z,99306.56
2023-03-24T14:28:29.651Z,99297.13
2023-03-24T14:31:18.395Z,99293.22
2023-03-24T14:34:01.933Z,99314.03
2023-03-24T14:36:42.351Z,99288.41
2023-03-24T14:39:27.062Z,99318.44
2023-03-24T14:41:59.334Z,99287.78
2023-03-24T14:44:53.391Z,99237.81
2023-03-24T14:47:29.957Z,99273.56
2023-03-24T14:50:11.963Z,99299.63
2023-03-24T14:52:52.829Z,99234.91
2023-03-24T14:55:25.570Z,99296.16
2023-03-24T14:58:03.598Z,99295.03
2023-03-24T15:00:51.784Z,99239.25
2023-03-24T15:03:57.305Z,99250.56
2023-03-24T15:06:29.074Z,99304.31
2023-03-24T15:09:06.923Z,99312.56
2023-03-24T15:11:40.787Z,99238.38
2023-03-24T15:14:25.276Z,99274.34
2023-03-24T15:17:28.914Z,99297.88
2023-03-24T15:20:00.628Z,99267.31
2023-03-24T15:22:41.155Z,99279.47
2023-03-24T15:25:15.306Z,99239.16
2023-03-24T15:27:51.429Z,99239.06
2023-03-24T15:30:22.993Z,99251.88
2023-03-24T15:32:55.175Z,99281.88
2023-03-24T15:35:26.617Z,99323.16
2023-03-24T15:37:59.076Z,99314.25
2023-03-24T15:40:32.774Z,99261.72
2023-03-24T15:43:06.829Z,99243.94
2023-03-24T15:45:49.545Z,99315.31
2023-03-24T15:48:28.518Z,99250.13
2023-03-24T15:51:11.325Z,99299.03
2023-03-24T15:53:49.000Z,99295.38
2023-03-24T15:56:26.691Z,99323.00
2023-03-24T15:59:15.400Z,99243.56
2023-03-24T16:01:50.186Z,99255.41
2023-03-24T16:04:23.304Z,99286.56
2023-03-24T16:06:54.691Z,99320.03
2023-03-24T16:09:37.286Z,99294.53
2023-03-24T16:12:13.084Z,99290.03
2023-03-24T16:14:44.698Z,99315.81
2023-03-24T16:17:16.074Z,99313.88
2023-03-24T16:19:47.423Z,99250.34
2023-03-24T16:22:18.969Z,99244.00
2023-03-24T16:24:50.589Z,99314.41
2023-03-24T16:27:21.967Z,99312.59
2023-03-24T16:29:53.752Z,99311.75
2023-03-24T16:32:25.124Z,99304.78
2023-03-24T16:34:56.537Z,99253.34
2023-03-24T16:37:27.869Z,99323.41
2023-03-24T16:39:59.680Z,99277.47
2023-03-24T16:42:32.085Z,99317.50
2023-03-24T16:45:03.693Z,99318.66
2023-03-24T16:47:35.183Z,99327.31
2023-03-24T16:50:27.576Z,99317.47
2023-03-24T16:52:59.213Z,99317.09
2023-03-24T16:55:31.819Z,99322.22
2023-03-24T16:58:04.233Z,99317.38
2023-03-24T17:00:39.498Z,99279.44
2023-03-24T17:03:13.704Z,99319.78
2023-03-24T17:05:51.242Z,99253.78
2023-03-24T17:08:22.701Z,99279.59
2023-03-24T17:10:55.094Z,99332.59
2023-03-24T17:13:26.584Z,99303.88
2023-03-24T17:15:57.907Z,99267.97
2023-03-24T17:18:29.407Z,99334.03
2023-03-24T17:21:01.468Z,99326.63
2023-03-24T17:23:34.724Z,99316.00
2023-03-24T17:26:06.560Z,99338.09
2023-03-24T17:28:38.057Z,99342.06
2023-03-24T17:31:09.940Z,99270.75
2023-03-24T17:33:41.789Z,99354.72
2023-03-24T17:36:16.722Z,99313.47
2023-03-24T17:38:48.589Z,99337.03
2023-03-24T17:41:19.890Z,99348.03
2023-03-24T17:43:51.280Z,99339.53
2023-03-24T17:46:22.800Z,99330.47
2023-03-24T17:48:54.104Z,99313.56
2023-03-24T17:51:25.595Z,99272.44
2023-03-24T17:53:56.947Z,99351.56
2023-03-24T17:56:28.498Z,99340.81
2023-03-24T17:58:59.970Z,99289.25
2023-03-24T18:01:34.940Z,99276.56
2023-03-24T18:04:06.659Z,99371.03
2023-03-24T18:06:38.604Z,99322.84
2023-03-24T18:09:11.384Z,99370.72
2023-03-24T18:11:42.776Z,99286.53
2023-03-24T18:14:14.158Z,99296.16
2023-03-24T18:16:46.502Z,99371.94
2023-03-24T18:19:17.986Z,99380.22
2023-03-24T18:21:49.345Z,99370.84
2023-03-24T18:24:20.798Z,99343.44
2023-03-24T18:26:52.639Z,99383.38
2023-03-24T18:29:24.276Z,99382.88
2023-03-24T18:31:55.799Z,99372.50
2023-03-24T18:34:27.905Z,99343.53
2023-03-24T18:36:59.398Z,99360.31
2023-03-24T18:39:30.762Z,99395.06
2023-03-24T18:42:02.083Z,99404.09
2023-03-24T18:44:33.780Z,99396.47
2023-03-24T18:47:06.180Z,99311.75
2023-03-24T18:49:37.654Z,99395.41
2023-03-24T18:52:09.828Z,99397.44
2023-03-24T18:54:41.353Z,99391.50
2023-03-24T18:57:13.136Z,99389.16
2023-03-24T18:59:44.510Z,99398.94
2023-03-24T19:02:16.110Z,99384.31
2023-03-24T19:04:48.207Z,99389.66
2023-03-24T19:07:26.054Z,99323.19
2023-03-24T19:09:57.543Z,99409.88
2023-03-24T19:12:28.838Z,99412.00
2023-03-24T19:15:01.550Z,99385.81
2023-03-24T19:17:33.319Z,99410.22
2023-03-24T19:20:07.192Z,99396.31
2023-03-24T19:22:41.500Z,99373.03
2023-03-24T19:25:15.376Z,99412.09
2023-03-24T19:27:46.978Z,99391.56
2023-03-24T19:30:18.423Z,99398.66
2023-03-24T19:32:50.188Z,99314.94
2023-03-24T19:35:21.566Z,99310.97
2023-03-24T19:37:53.415Z,99327.50
2023-03-24T19:40:24.921Z,99401.22
2023-03-24T19:42:56.430Z,99380.63
2023-03-24T19:45:27.793Z,99365.22
2023-03-24T19:47:59.267Z,99408.41
2023-03-24T19:50:30.779Z,99409.25
2023-03-24T19:53:02.158Z,99321.09
2023-03-24T19:55:35.964Z,99376.41
2023-03-24T19:58:07.388Z,99372.13
2023-03-24T20:00:38.766Z,99386.03
2023-03-24T20:03:10.926Z,99409.56
2023-03-24T20:05:42.316Z,99401.06
2023-03-24T20:08:14.113Z,99382.78
2023-03-24T20:10:45.411Z,99397.03
2023-03-24T20:13:17.465Z,99394.53
2023-03-24T20:15:49.140Z,99398.09
2023-03-24T20:18:20.686Z,99383.34
2023-03-24T20:20:54.972Z,99384.25
2023-03-24T20:23:26.412Z,99348.09
2023-03-24T20:25:59.776Z,99362.72
2023-03-24T20:28:31.159Z,99297.19
2023-03-24T20:31:03.946Z,99391.63
2023-03-24T20:33:35.906Z,99384.94
2023-03-24T20:36:07.871Z,99366.81
2023-03-24T20:38:39.234Z,99382.63
2023-03-24T20:41:10.771Z,99381.81
2023-03-24T20:43:42.162Z,99282.22
2023-03-24T20:46:17.624Z,99375.97
2023-03-24T20:48:50.094Z,99390.94
2023-03-24T20:51:21.850Z,99320.78
2023-03-24T20:53:53.235Z,99367.59
2023-03-24T20:56:25.079Z,99370.09
2023-03-24T20:58:59.730Z,99345.19
2023-03-24T21:01:35.932Z,99271.53
2023-03-24T21:04:09.577Z,99350.47
2023-03-24T21:06:43.164Z,99343.16
2023-03-24T21:09:14.495Z,99300.34
2023-03-24T21:11:46.198Z,99359.19
2023-03-24T21:14:18.889Z,99346.16
2023-03-24T21:16:51.843Z,99259.41
2023-03-24T21:19:23.521Z,99311.44
2023-03-24T21:21:56.026Z,99346.41
2023-03-24T21:24:27.375Z,99343.38
2023-03-24T21:27:00.085Z,99352.84
2023-03-24T21:29:31.595Z,99352.03
2023-03-24T21:32:03.238Z,99345.19
2023-03-24T21:34:34.637Z,99307.22
2023-03-24T21:37:05.975Z,99333.38
2023-03-24T21:39:37.575Z,99309.06
2023-03-24T21:42:09.178Z,99329.06
2023-03-24T21:44:42.746Z,99343.16
2023-03-24T21:47:14.988Z,99330.44
2023-03-24T21:49:48.986Z,99338.28
2023-03-24T21:52:20.486Z,99333.34
2023-03-24T21:54:53.823Z,99323.94
2023-03-24T21:57:25.200Z,99335.09
2023-03-24T21:59:57.107Z,99320.50
2023-03-24T22:02:30.299Z,99261.75
2023-03-24T22:05:01.705Z,99260.19
2023-03-24T22:07:39.335Z,99306.94
2023-03-24T22:10:14.481Z,99328.56
2023-03-24T22:12:45.810Z,99308.66
2023-03-24T22:15:18.076Z,99299.00
2023-03-24T22:17:50.334Z,99223.88
2023-03-24T22:20:22.428Z,99303.31
2023-03-24T22:22:53.886Z,99298.19
2023-03-24T22:25:25.430Z,99294.81
2023-03-24T22:27:56.819Z,99293.06
2023-03-24T22:30:28.161Z,99288.78
2023-03-24T22:32:59.549Z,99217.81
2023-03-24T22:35:31.093Z,99220.31
2023-03-24T22:38:02.428Z,99218.22
2023-03-24T22:40:34.108Z,99281.75
2023-03-24T22:43:05.483Z,99282.44
2023-03-24T22:45:37.088Z,99260.34
2023-03-24T22:48:08.422Z,99309.28
2023-03-24T22:50:41.116Z,99326.50
2023-03-24T22:53:12.453Z,99293.16
2023-03-24T22:55:44.757Z,99298.91
2023-03-24T22:58:16.293Z,99296.28
2023-03-24T23:00:49.700Z,99282.94
2023-03-24T23:03:21.150Z,99224.34
2023-03-24T23:05:52.813Z,99249.28
2023-03-24T23:08:24.824Z,99286.13
2023-03-24T23:10:58.704Z,99290.41
2023-03-24T23:13:30.694Z,99284.56
2023-03-24T23:16:03.051Z,99262.19
2023-03-24T23:18:34.455Z,99290.06
2023-03-24T23:21:09.227Z,99218.66
2023-03-24T23:23:41.437Z,99283.75
2023-03-24T23:26:26.135Z,99302.31
2023-03-24T23:28:58.060Z,99170.41
2023-03-24T23:31:29.474Z,99271.78
2023-03-24T23:34:04.328Z,99289.31
2023-03-24T23:36:35.740Z,99274.84
2023-03-24T23:39:07.052Z,99225.88
2023-03-24T23:41:38.391Z,99253.69
2023-03-24T23:44:10.057Z,99313.84
2023-03-24T23:46:41.518Z,99284.44
2023-03-24T23:49:13.002Z,99302.00
2023-03-24T23:51:44.439Z,99203.50
2023-03-24T23:54:16.220Z,99280.59
2023-03-24T23:56:47.745Z,99286.00
2023-03-24T23:59:19.156Z,99284.31
